Time;durP1;ratioP1;P1;durP2;ratioP2;P2;SDS_P1;SDS_P2;PMS_P1;PMS_P2;Temp;Humidity;BMP_temperature;BMP_pressure;BME280_temperature;BME280_humidity;BME280_pressure;Samples;Min_cycle;Max_cycle;Signal;HPM_P1;HPM_P2
2023/04/19 00:02:27;;;;;;;20.07;17.87;;;9.90;99.90;;;;;;5078820;28;20965;-56
2023/04/19 00:04:56;;;;;;;20.40;17.27;;;9.90;99.90;;;;;;5078259;28;20465;-54
2023/04/19 00:07:23;;;;;;;21.20;19.00;;;9.90;99.90;;;;;;5078828;28;20766;-53
2023/04/19 00:09:50;;;;;;;18.40;16.40;;;9.90;99.90;;;;;;5078652;28;20807;-53
2023/04/19 00:12:18;;;;;;;18.30;16.43;;;9.90;99.90;;;;;;5078581;28;20470;-55
2023/04/19 00:14:45;;;;;;;21.37;18.63;;;9.90;99.90;;;;;;5078568;28;20743;-53
2023/04/19 00:17:12;;;;;;;21.00;18.40;;;9.90;99.90;;;;;;5078620;28;20563;-51
2023/04/19 00:19:40;;;;;;;20.37;17.30;;;9.90;99.90;;;;;;5077817;28;20490;-52
2023/04/19 00:22:08;;;;;;;20.10;18.10;;;9.90;99.90;;;;;;5078727;28;20913;-54
2023/04/19 00:24:35;;;;;;;21.10;18.80;;;9.90;99.90;;;;;;5077997;28;20467;-51
2023/04/19 00:27:03;;;;;;;19.60;17.60;;;9.90;99.90;;;;;;5077764;28;20587;-51
2023/04/19 00:29:30;;;;;;;19.80;17.07;;;9.90;99.90;;;;;;5078059;28;20518;-52
2023/04/19 00:31:57;;;;;;;20.53;17.43;;;9.90;99.90;;;;;;5078166;28;20503;-50
2023/04/19 00:34:25;;;;;;;22.10;18.57;;;9.90;99.90;;;;;;5078109;28;20761;-51
2023/04/19 00:36:52;;;;;;;20.03;17.90;;;9.90;99.90;;;;;;5078028;28;20461;-54
2023/04/19 00:39:20;;;;;;;21.40;17.70;;;9.90;99.90;;;;;;5077530;28;20493;-56
2023/04/19 00:41:47;;;;;;;20.70;18.57;;;9.90;99.90;;;;;;5078272;28;20945;-55
2023/04/19 00:44:15;;;;;;;21.20;18.23;;;9.90;99.90;;;;;;5077877;28;20519;-58
2023/04/19 00:46:43;;;;;;;21.90;19.57;;;9.90;99.90;;;;;;5077596;28;20870;-54
2023/04/19 00:49:10;;;;;;;20.80;18.20;;;9.90;99.90;;;;;;5076745;28;20458;-52
2023/04/19 00:51:38;;;;;;;20.70;18.23;;;9.90;1.00;;;;;;5077895;28;20471;-52
2023/04/19 00:54:06;;;;;;;20.93;18.67;;;9.90;1.00;;;;;;5077896;28;20874;-54
2023/04/19 00:56:35;;;;;;;23.70;18.67;;;9.90;1.00;;;;;;5077187;28;20461;-54
2023/04/19 00:59:02;;;;;;;22.30;18.50;;;9.90;1.00;;;;;;5077632;28;20461;-55
2023/04/19 01:01:31;;;;;;;20.57;18.50;;;9.90;1.00;;;;;;5077103;28;20458;-57
2023/04/19 01:03:58;;;;;;;20.13;18.00;;;9.90;1.00;;;;;;5077335;28;20469;-54
2023/04/19 01:06:28;;;;;;;21.03;18.77;;;9.90;1.00;;;;;;5077662;28;20890;-52
2023/04/19 01:08:56;;;;;;;20.47;18.20;;;9.90;1.00;;;;;;5077683;28;20476;-54
2023/04/19 01:11:23;;;;;;;22.77;19.30;;;9.90;1.00;;;;;;5077410;28;20497;-57
2023/04/19 01:13:52;;;;;;;21.90;19.63;;;9.80;1.00;;;;;;5077210;28;20461;-55
2023/04/19 01:16:19;;;;;;;21.50;19.20;;;9.80;1.00;;;;;;5077471;28;20493;-54
2023/04/19 01:18:46;;;;;;;21.07;18.00;;;9.80;1.00;;;;;;5077257;28;20493;-58
2023/04/19 01:21:14;;;;;;;20.80;18.43;;;9.80;1.00;;;;;;5076907;28;20500;-57
2023/04/19 01:23:43;;;;;;;22.03;19.60;;;9.70;1.00;;;;;;5077178;28;20461;-55
2023/04/19 01:26:10;;;;;;;20.63;18.53;;;9.70;1.00;;;;;;5077383;28;20882;-52
2023/04/19 01:28:37;;;;;;;21.10;18.90;;;9.70;1.00;;;;;;5077095;28;20485;-58
2023/04/19 01:31:04;;;;;;;23.73;21.23;;;9.70;1.00;;;;;;5077297;28;20882;-54
2023/04/19 01:33:31;;;;;;;24.73;21.73;;;9.70;1.00;;;;;;5077020;28;20733;-57
2023/04/19 01:35:58;;;;;;;21.67;19.43;;;9.60;1.00;;;;;;5077483;28;20467;-54
2023/04/19 01:38:26;;;;;;;20.87;18.67;;;9.50;1.00;;;;;;5077224;28;20469;-55
2023/04/19 01:40:56;;;;;;;21.20;18.93;;;9.50;1.00;;;;;;5076717;28;20468;-50
2023/04/19 01:43:23;;;;;;;23.27;20.40;;;9.50;1.00;;;;;;5077089;28;20804;-55
2023/04/19 01:45:50;;;;;;;22.87;19.33;;;9.50;1.00;;;;;;5076797;28;20464;-56
2023/04/19 01:48:17;;;;;;;21.03;18.83;;;9.40;1.00;;;;;;5077435;28;20878;-52
2023/04/19 01:50:44;;;;;;;20.97;18.90;;;9.50;1.00;;;;;;5076843;28;20461;-55
2023/04/19 01:53:11;;;;;;;21.70;19.10;;;9.50;13.20;;;;;;5077020;28;20467;-50
2023/04/19 01:55:39;;;;;;;23.53;20.57;;;9.50;7.30;;;;;;5077081;28;20483;-54
2023/04/19 01:58:08;;;;;;;22.03;19.73;;;9.50;1.00;;;;;;5076942;28;20476;-50
2023/04/19 02:00:35;;;;;;;22.50;19.80;;;9.60;1.00;;;;;;5077197;28;20521;-52
2023/04/19 02:03:02;;;;;;;20.23;18.13;;;9.70;1.00;;;;;;5080684;28;20435;-53
2023/04/19 02:05:30;;;;;;;22.63;19.77;;;9.70;1.00;;;;;;5080763;28;20461;-55
2023/04/19 02:07:57;;;;;;;23.80;19.60;;;9.70;1.00;;;;;;5080965;28;20496;-55
2023/04/19 02:10:24;;;;;;;23.83;20.63;;;9.70;1.00;;;;;;5081219;28;20456;-53
2023/04/19 02:12:51;;;;;;;21.80;19.50;;;9.70;1.00;;;;;;5080643;28;20574;-56
2023/04/19 02:15:20;;;;;;;21.97;19.70;;;9.70;1.00;;;;;;5080847;28;20501;-56
2023/04/19 02:17:47;;;;;;;22.83;20.57;;;9.70;1.00;;;;;;5080769;28;20461;-54
2023/04/19 02:20:14;;;;;;;22.20;19.80;;;9.70;1.00;;;;;;5080875;28;20583;-58
2023/04/19 02:22:42;;;;;;;23.43;20.50;;;9.80;1.00;;;;;;5080647;28;20491;-56
2023/04/19 02:25:10;;;;;;;22.40;19.50;;;9.80;1.00;;;;;;5080422;28;20511;-54
2023/04/19 02:27:37;;;;;;;22.73;20.33;;;9.70;1.00;;;;;;5079979;28;20941;-52
2023/04/19 02:30:05;;;;;;;23.30;20.27;;;9.70;1.00;;;;;;5080611;28;20886;-57
2023/04/19 02:32:33;;;;;;;22.30;19.87;;;9.70;1.00;;;;;;5080007;28;20526;-53
2023/04/19 02:35:01;;;;;;;22.13;19.70;;;9.70;1.00;;;;;;5080198;28;20503;-54
2023/04/19 02:37:28;;;;;;;25.60;22.10;;;9.70;1.00;;;;;;5080406;28;20462;-51
2023/04/19 02:39:55;;;;;;;21.97;19.60;;;9.70;1.00;;;;;;5080228;28;20528;-52
2023/04/19 02:42:22;;;;;;;23.93;20.30;;;9.70;1.00;;;;;;5080579;28;20496;-53
2023/04/19 02:44:49;;;;;;;21.10;18.77;;;9.70;1.00;;;;;;5079785;28;20469;-55
2023/04/19 02:47:17;;;;;;;21.57;19.20;;;9.70;1.00;;;;;;5080360;28;20878;-55
2023/04/19 02:49:45;;;;;;;22.03;19.40;;;9.70;1.00;;;;;;5080017;28;20496;-55
2023/04/19 02:52:13;;;;;;;23.27;20.43;;;9.70;1.00;;;;;;5080315;28;20471;-54
2023/04/19 02:54:40;;;;;;;21.70;19.37;;;9.70;1.00;;;;;;5079282;28;20496;-54
2023/04/19 02:57:07;;;;;;;24.07;20.43;;;9.70;1.00;;;;;;5078183;28;20835;-52
2023/04/19 02:59:34;;;;;;;22.13;19.93;;;9.70;1.00;;;;;;5078061;28;20467;-53
2023/04/19 03:02:02;;;;;;;25.30;20.40;;;9.70;1.00;;;;;;5078370;28;20469;-57
2023/04/19 03:04:44;;;;;;;24.27;21.30;;;9.70;1.00;;;;;;5078595;28;20553;-52
2023/04/19 03:07:12;;;;;;;24.10;19.53;;;9.70;1.00;;;;;;5078227;28;20489;-53
2023/04/19 03:09:40;;;;;;;22.63;18.60;;;9.70;1.00;;;;;;5077660;28;20784;-51
2023/04/19 03:12:10;;;;;;;22.50;20.17;;;9.70;1.00;;;;;;5078669;28;20857;-53
2023/04/19 03:14:43;;;;;;;20.77;18.50;;;9.70;1.00;;;;;;5079458;28;20910;-54
2023/04/19 03:17:10;;;;;;;20.80;18.57;;;9.70;1.00;;;;;;5079821;28;20461;-53
2023/04/19 03:19:40;;;;;;;18.57;16.57;;;9.70;1.00;;;;;;5079500;28;20505;-56
2023/04/19 03:22:07;;;;;;;20.00;16.10;;;9.60;1.00;;;;;;5079568;28;20466;-53
2023/04/19 03:24:39;;;;;;;18.07;16.07;;;9.60;1.00;;;;;;5078936;28;20500;-53
2023/04/19 03:27:32;;;;;;;16.87;15.17;;;9.60;1.00;;;;;;5079118;28;20498;-52
2023/04/19 03:30:01;;;;;;;16.90;15.20;;;9.60;1.00;;;;;;5079646;28;20500;-58
2023/04/19 03:32:28;;;;;;;16.50;14.73;;;9.60;1.00;;;;;;5079615;28;20477;-52
2023/04/19 03:34:55;;;;;;;16.70;15.00;;;9.60;1.00;;;;;;5079112;28;20908;-53
2023/04/19 03:37:23;;;;;;;17.40;15.07;;;9.70;1.00;;;;;;5079197;28;20547;-54
2023/04/19 03:39:55;;;;;;;15.60;13.90;;;9.60;1.00;;;;;;5079280;28;20489;-55
2023/04/19 03:42:27;;;;;;;16.80;13.87;;;9.60;1.00;;;;;;5079266;28;20520;-53
2023/04/19 03:44:54;;;;;;;14.77;13.00;;;9.60;1.00;;;;;;5079087;28;20461;-53
2023/04/19 03:47:21;;;;;;;15.13;13.53;;;9.60;1.00;;;;;;5078934;28;20822;-50
2023/04/19 03:49:49;;;;;;;13.40;11.70;;;9.60;1.00;;;;;;5079272;28;20665;-54
2023/04/19 03:52:19;;;;;;;14.03;12.23;;;9.60;1.00;;;;;;5078887;28;20886;-56
2023/04/19 03:54:46;;;;;;;13.20;11.80;;;9.60;1.00;;;;;;5078385;28;20467;-56
2023/04/19 03:57:16;;;;;;;15.23;10.73;;;9.60;1.00;;;;;;5079091;28;20499;-57
2023/04/19 03:59:44;;;;;;;14.70;9.77;;;9.60;1.00;;;;;;5078550;28;20513;-55
2023/04/19 04:02:11;;;;;;;12.40;10.00;;;9.50;99.90;;;;;;5079072;28;20493;-57
2023/04/19 04:04:38;;;;;;;12.03;9.80;;;9.50;99.90;;;;;;5078513;28;20824;-56
2023/04/19 04:07:05;;;;;;;10.67;9.00;;;9.60;99.90;;;;;;5078551;28;20499;-56
2023/04/19 04:09:33;;;;;;;10.33;8.47;;;9.50;99.90;;;;;;5078493;28;20818;-57
2023/04/19 04:12:00;;;;;;;11.20;8.00;;;9.50;99.90;;;;;;5078631;28;20886;-55
2023/04/19 04:14:29;;;;;;;9.50;8.03;;;9.40;99.90;;;;;;5078811;28;20565;-54
2023/04/19 04:16:56;;;;;;;8.97;7.70;;;9.40;99.90;;;;;;5078516;28;20462;-54
2023/04/19 04:19:23;;;;;;;9.07;8.10;;;9.40;99.90;;;;;;5078135;28;20551;-56
2023/04/19 04:21:50;;;;;;;8.60;7.70;;;9.30;99.90;;;;;;5078541;28;20495;-54
2023/04/19 04:24:19;;;;;;;9.07;8.17;;;9.30;99.90;;;;;;5078131;28;20453;-55
2023/04/19 04:26:48;;;;;;;8.30;7.37;;;9.30;99.90;;;;;;5077526;28;20495;-56
2023/04/19 04:29:16;;;;;;;9.57;7.60;;;9.30;99.90;;;;;;5077819;28;20476;-54
2023/04/19 04:31:44;;;;;;;10.40;8.50;;;9.30;99.90;;;;;;5078239;28;20453;-56
2023/04/19 04:34:11;;;;;;;8.30;7.40;;;9.30;99.90;;;;;;5076046;28;20565;-57
2023/04/19 04:36:40;;;;;;;8.90;8.00;;;9.30;99.90;;;;;;5077509;28;20561;-55
2023/04/19 04:39:10;;;;;;;9.43;7.10;;;9.30;99.90;;;;;;5077951;28;20468;-55
2023/04/19 04:41:40;;;;;;;10.00;7.80;;;9.30;99.90;;;;;;5077912;28;20864;-53
2023/04/19 04:44:07;;;;;;;9.30;7.83;;;9.20;99.90;;;;;;5074949;28;20507;-51
2023/04/19 04:46:34;;;;;;;9.50;7.27;;;9.20;99.90;;;;;;5076448;28;20483;-56
2023/04/19 04:49:03;;;;;;;7.60;6.80;;;9.20;99.90;;;;;;5076049;28;20466;-52
2023/04/19 04:51:31;;;;;;;8.87;7.97;;;9.20;99.90;;;;;;5076232;28;20545;-54
2023/04/19 04:53:58;;;;;;;9.10;7.37;;;9.20;99.90;;;;;;5076830;28;20464;-53
2023/04/19 04:56:26;;;;;;;9.37;8.30;;;9.20;99.90;;;;;;5076119;28;20476;-57
2023/04/19 04:58:53;;;;;;;10.10;6.90;;;9.10;99.90;;;;;;5076576;28;20483;-53
2023/04/19 05:01:21;;;;;;;9.60;7.70;;;9.10;99.90;;;;;;5076768;28;20500;-50
2023/04/19 05:03:48;;;;;;;8.70;7.63;;;9.10;99.90;;;;;;5077160;28;20469;-54
2023/04/19 05:06:17;;;;;;;7.93;7.23;;;9.10;99.90;;;;;;5075431;28;20965;-52
2023/04/19 05:08:45;;;;;;;8.73;7.13;;;9.10;99.90;;;;;;5076758;28;20551;-53
2023/04/19 05:11:12;;;;;;;9.33;7.60;;;9.10;99.90;;;;;;5076290;28;20465;-52
2023/04/19 05:13:39;;;;;;;8.90;7.53;;;9.10;99.90;;;;;;5076679;28;20493;-57
2023/04/19 05:16:07;;;;;;;8.10;6.87;;;9.10;99.90;;;;;;5077090;28;20492;-56
2023/04/19 05:18:34;;;;;;;9.13;7.80;;;9.10;99.90;;;;;;5076858;28;20461;-56
2023/04/19 05:21:01;;;;;;;9.17;8.17;;;9.20;99.90;;;;;;5076861;28;20529;-51
2023/04/19 05:23:30;;;;;;;7.93;7.13;;;9.30;99.90;;;;;;5077049;28;20457;-53
2023/04/19 05:25:57;;;;;;;8.10;6.93;;;9.30;99.90;;;;;;5069579;28;20473;-57
2023/04/19 05:28:24;;;;;;;11.60;7.80;;;9.30;99.90;;;;;;5076074;28;20516;-54
2023/04/19 05:30:52;;;;;;;8.53;7.37;;;9.30;99.90;;;;;;5076978;28;20551;-57
2023/04/19 05:33:19;;;;;;;8.40;7.50;;;9.30;99.90;;;;;;5076760;28;20556;-59
2023/04/19 05:35:47;;;;;;;7.00;6.30;;;9.40;99.90;;;;;;5072632;28;20508;-60
2023/04/19 05:38:14;;;;;;;12.73;8.10;;;9.40;99.90;;;;;;5075671;28;20532;-60
2023/04/19 05:40:42;;;;;;;8.83;7.30;;;9.40;99.90;;;;;;5072930;28;20491;-59
2023/04/19 05:43:10;;;;;;;8.30;7.40;;;9.50;99.90;;;;;;5075520;28;20914;-60
2023/04/19 05:45:37;;;;;;;8.23;7.33;;;9.60;99.90;;;;;;5091365;28;20464;-59
2023/04/19 05:48:05;;;;;;;8.67;7.77;;;9.60;99.90;;;;;;5096850;28;20530;-57
2023/04/19 05:50:32;;;;;;;9.57;7.73;;;9.60;99.90;;;;;;5096201;28;20499;-60
2023/04/19 05:53:00;;;;;;;8.40;7.53;;;9.60;99.90;;;;;;5095062;28;20456;-59
2023/04/19 05:55:27;;;;;;;10.33;7.70;;;9.50;99.90;;;;;;5095786;28;20509;-56
2023/04/19 05:57:56;;;;;;;12.70;8.43;;;9.60;99.90;;;;;;5073378;28;20477;-55
2023/04/19 06:00:23;;;;;;;9.90;8.07;;;9.50;99.90;;;;;;5074217;28;20721;-56
2023/04/19 06:02:51;;;;;;;9.33;8.37;;;9.40;99.90;;;;;;5074992;28;20491;-60
2023/04/19 06:05:18;;;;;;;9.23;8.33;;;9.40;99.90;;;;;;5075088;28;20471;-59
2023/04/19 06:07:45;;;;;;;8.70;7.80;;;9.40;99.90;;;;;;5075987;28;20467;-59
2023/04/19 06:10:13;;;;;;;13.13;8.03;;;9.30;99.90;;;;;;5076925;28;20819;-58
2023/04/19 06:12:40;;;;;;;8.23;7.43;;;9.30;99.90;;;;;;5076528;28;20497;-58
2023/04/19 06:15:10;;;;;;;9.70;8.00;;;9.40;99.90;;;;;;5074336;28;20827;-60
2023/04/19 06:17:37;;;;;;;9.40;8.00;;;9.30;99.90;;;;;;5058393;28;20470;-59
2023/04/19 06:20:06;;;;;;;9.60;7.70;;;9.20;99.90;;;;;;5057041;28;20462;-57
2023/04/19 06:22:35;;;;;;;9.93;7.33;;;9.20;99.90;;;;;;5056153;28;20585;-60
2023/04/19 06:25:03;;;;;;;9.00;7.50;;;9.00;99.90;;;;;;5056390;28;20466;-56
2023/04/19 06:27:30;;;;;;;9.23;7.93;;;9.00;99.90;;;;;;5056592;28;20497;-59
2023/04/19 06:29:59;;;;;;;9.60;7.90;;;9.00;99.90;;;;;;5056413;28;20506;-60
2023/04/19 06:32:28;;;;;;;9.03;7.80;;;9.00;99.90;;;;;;5056703;28;20462;-56
2023/04/19 06:34:58;;;;;;;9.40;7.70;;;9.00;99.90;;;;;;5056541;28;20481;-59
2023/04/19 06:37:25;;;;;;;9.23;8.03;;;9.00;99.90;;;;;;5056186;28;20966;-59
2023/04/19 06:39:52;;;;;;;9.30;8.40;;;9.00;99.90;;;;;;5056558;28;20517;-57
2023/04/19 06:42:20;;;;;;;9.30;7.63;;;9.20;99.90;;;;;;5056366;28;20958;-60
2023/04/19 06:44:47;;;;;;;9.20;7.67;;;9.30;99.90;;;;;;5056193;28;20466;-60
2023/04/19 06:47:15;;;;;;;9.67;7.80;;;9.60;99.90;;;;;;5056698;28;20498;-59
2023/04/19 06:49:43;;;;;;;13.73;8.67;;;10.10;99.90;;;;;;5060268;28;20484;-60
2023/04/19 06:52:11;;;;;;;11.97;8.03;;;10.50;99.90;;;;;;5072671;28;20472;-55
2023/04/19 06:54:38;;;;;;;8.47;7.57;;;10.80;99.90;;;;;;5078930;28;20991;-58
2023/04/19 06:57:05;;;;;;;9.37;8.03;;;11.10;99.90;;;;;;5078846;28;20456;-59
2023/04/19 06:59:32;;;;;;;10.20;8.67;;;11.30;99.90;;;;;;5079987;28;20500;-58
2023/04/19 07:01:59;;;;;;;8.07;7.23;;;11.40;99.90;;;;;;5079200;28;20788;-55
2023/04/19 07:04:27;;;;;;;8.67;7.90;;;11.80;99.90;;;;;;5077772;28;20524;-59
2023/04/19 07:06:55;;;;;;;10.63;7.70;;;12.00;99.90;;;;;;5077779;28;20467;-60
2023/04/19 07:09:23;;;;;;;8.40;7.60;;;12.30;99.90;;;;;;5077983;28;20492;-60
2023/04/19 07:11:50;;;;;;;9.57;7.33;;;12.40;99.90;;;;;;5077977;28;20893;-57
2023/04/19 07:14:18;;;;;;;8.63;7.77;;;12.00;99.90;;;;;;5075375;28;20559;-58
2023/04/19 07:16:46;;;;;;;8.87;7.93;;;12.00;99.90;;;;;;5076604;28;20846;-56
2023/04/19 07:19:13;;;;;;;10.03;7.47;;;11.90;99.90;;;;;;5076134;28;20908;-58
2023/04/19 07:21:40;;;;;;;9.87;8.20;;;12.10;99.90;;;;;;5076441;28;20592;-61
2023/04/19 07:24:09;;;;;;;7.70;6.87;;;12.40;99.90;;;;;;5075892;28;20457;-60
2023/04/19 07:26:37;;;;;;;8.83;7.93;;;12.80;99.90;;;;;;5075515;28;20546;-59
2023/04/19 07:29:04;;;;;;;9.30;8.30;;;12.60;99.90;;;;;;5076409;28;20526;-59
2023/04/19 07:31:32;;;;;;;9.90;8.67;;;12.60;99.90;;;;;;5077093;28;20554;-61
2023/04/19 07:33:59;;;;;;;8.93;8.03;;;12.80;99.90;;;;;;5078687;28;20461;-59
2023/04/19 07:36:26;;;;;;;8.27;7.47;;;13.00;99.90;;;;;;5078553;28;20506;-62
2023/04/19 07:38:53;;;;;;;11.97;7.87;;;13.10;99.90;;;;;;5078153;28;20816;-57
2023/04/19 07:41:22;;;;;;;8.00;7.20;;;13.10;99.90;;;;;;5079177;28;20485;-59
2023/04/19 07:43:50;;;;;;;8.73;7.50;;;13.00;99.90;;;;;;5079263;28;20548;-61
2023/04/19 07:46:17;;;;;;;7.50;6.80;;;13.20;99.90;;;;;;5079099;28;20465;-58
2023/04/19 07:48:45;;;;;;;8.10;7.40;;;12.50;99.90;;;;;;5078853;28;20515;-59
2023/04/19 07:51:13;;;;;;;7.83;7.10;;;12.60;99.90;;;;;;5078633;28;20466;-58
2023/04/19 07:53:42;;;;;;;7.70;7.00;;;12.80;99.90;;;;;;5079223;28;20818;-60
2023/04/19 07:56:09;;;;;;;9.70;7.17;;;12.70;99.90;;;;;;5078956;28;20515;-55
2023/04/19 07:58:40;;;;;;;8.10;7.30;;;12.80;99.90;;;;;;5078026;28;20461;-59
2023/04/19 08:01:07;;;;;;;7.77;6.83;;;12.70;99.90;;;;;;5078699;28;20465;-60
2023/04/19 08:03:35;;;;;;;8.90;6.33;;;13.10;99.90;;;;;;5078609;28;20496;-61
2023/04/19 08:06:04;;;;;;;7.10;6.40;;;13.00;99.90;;;;;;5078500;28;20462;-59
2023/04/19 08:08:31;;;;;;;6.90;6.10;;;12.60;99.90;;;;;;5079039;28;20469;-60
2023/04/19 08:11:00;;;;;;;7.63;5.70;;;12.70;99.90;;;;;;5078435;28;20465;-60
2023/04/19 08:13:28;;;;;;;8.10;5.90;;;12.90;99.90;;;;;;5078340;28;20465;-59
2023/04/19 08:15:57;;;;;;;8.57;6.67;;;13.00;99.90;;;;;;5078755;28;20555;-60
2023/04/19 08:18:24;;;;;;;6.30;5.60;;;13.10;99.90;;;;;;5078501;28;20440;-61
2023/04/19 08:20:51;;;;;;;6.87;6.17;;;13.40;99.90;;;;;;5078051;28;20461;-56
2023/04/19 08:23:19;;;;;;;7.87;5.30;;;13.70;99.90;;;;;;5078307;28;20524;-57
2023/04/19 08:25:46;;;;;;;7.37;6.30;;;13.40;99.90;;;;;;5078141;28;20555;-60
2023/04/19 08:28:13;;;;;;;6.33;5.73;;;13.70;99.90;;;;;;5077918;28;20489;-58
2023/04/19 08:30:41;;;;;;;10.20;6.20;;;13.70;99.90;;;;;;5078010;28;20847;-56
2023/04/19 08:33:10;;;;;;;7.77;6.07;;;13.40;99.90;;;;;;5077855;28;20462;-57
2023/04/19 08:35:39;;;;;;;7.07;5.57;;;13.50;99.90;;;;;;5077846;28;20461;-60
2023/04/19 08:38:07;;;;;;;5.77;5.27;;;14.00;99.90;;;;;;5078487;28;20952;-56
2023/04/19 08:40:34;;;;;;;8.87;4.93;;;14.00;99.90;;;;;;5077516;28;20461;-59
2023/04/19 08:43:06;;;;;;;5.73;5.20;;;13.80;99.90;;;;;;5077726;28;20997;-58
2023/04/19 08:45:34;;;;;;;4.60;4.20;;;13.70;99.90;;;;;;5077460;28;20461;-57
2023/04/19 08:48:03;;;;;;;5.77;5.17;;;13.70;99.90;;;;;;5077937;28;20500;-59
2023/04/19 08:50:32;;;;;;;7.17;5.47;;;14.00;99.90;;;;;;5078200;28;20457;-59
2023/04/19 08:53:00;;;;;;;6.00;5.40;;;14.00;99.90;;;;;;5077569;28;20464;-55
2023/04/19 08:55:29;;;;;;;6.47;5.77;;;14.10;99.90;;;;;;5078013;28;20893;-54
2023/04/19 08:57:57;;;;;;;6.87;5.30;;;14.20;99.90;;;;;;5077690;28;20461;-61
2023/04/19 09:00:25;;;;;;;6.50;5.90;;;14.60;99.90;;;;;;5078021;28;20718;-56
2023/04/19 09:02:54;;;;;;;6.33;5.80;;;14.50;99.90;;;;;;5077412;28;20493;-54
2023/04/19 09:05:21;;;;;;;5.40;4.80;;;14.50;99.90;;;;;;5072934;28;20531;-60
2023/04/19 09:07:50;;;;;;;7.40;5.23;;;14.10;99.90;;;;;;5077856;28;20863;-53
2023/04/19 09:10:19;;;;;;;9.20;5.50;;;14.40;99.90;;;;;;5077173;28;20560;-62
2023/04/19 09:13:01;;;;;;;7.00;5.10;;;14.50;99.90;;;;;;5077137;28;20485;-59
2023/04/19 09:15:37;;;;;;;6.30;5.47;;;14.00;99.90;;;;;;5076993;28;20765;-57
2023/04/19 09:18:06;;;;;;;6.73;5.33;;;14.00;99.90;;;;;;5077481;28;20465;-58
2023/04/19 09:20:37;;;;;;;8.60;5.53;;;13.70;99.90;;;;;;5077120;28;20465;-58
2023/04/19 09:23:07;;;;;;;6.93;5.57;;;13.90;99.90;;;;;;5077248;28;20500;-60
2023/04/19 09:25:35;;;;;;;6.30;4.87;;;14.00;99.90;;;;;;5077571;28;20492;-61
2023/04/19 09:28:11;;;;;;;7.43;4.93;;;14.20;99.90;;;;;;5076959;28;20509;-59
2023/04/19 09:30:41;;;;;;;6.27;5.10;;;14.50;99.90;;;;;;5076970;28;20485;-53
2023/04/19 09:33:08;;;;;;;6.43;5.43;;;14.50;99.90;;;;;;5076946;28;20457;-59
2023/04/19 09:35:43;;;;;;;8.23;5.20;;;14.70;99.90;;;;;;5076409;28;20507;-57
2023/04/19 09:38:12;;;;;;;5.87;4.53;;;15.20;99.90;;;;;;5077102;28;20469;-56
2023/04/19 09:40:40;;;;;;;6.13;4.93;;;15.20;99.90;;;;;;5076984;28;20465;-55
2023/04/19 09:43:08;;;;;;;5.10;4.50;;;15.50;99.90;;;;;;5076576;28;20559;-56
2023/04/19 09:45:42;;;;;;;5.57;4.20;;;15.20;99.90;;;;;;5077353;28;20461;-57
2023/04/19 09:48:10;;;;;;;5.80;5.03;;;15.00;99.90;;;;;;5075249;28;20474;-60
2023/04/19 09:50:52;;;;;;;4.13;3.73;;;14.60;99.90;;;;;;5076441;28;20575;-62
2023/04/19 09:53:21;;;;;;;4.57;3.67;;;15.20;99.90;;;;;;5076230;28;20511;-59
2023/04/19 09:55:48;;;;;;;4.50;3.50;;;15.50;99.90;;;;;;5076783;28;20468;-57
2023/04/19 09:58:16;;;;;;;4.63;3.47;;;15.60;99.90;;;;;;5076780;28;20559;-59
2023/04/19 10:00:46;;;;;;;3.90;3.60;;;15.50;99.90;;;;;;5076492;28;20461;-61
2023/04/19 10:03:14;;;;;;;4.47;3.50;;;15.30;99.90;;;;;;5076656;28;20540;-58
2023/04/19 10:05:43;;;;;;;2.97;2.70;;;15.10;99.90;;;;;;5076666;28;20469;-57
2023/04/19 10:08:12;;;;;;;6.20;3.90;;;15.30;99.90;;;;;;5076937;28;20492;-57
2023/04/19 10:10:41;;;;;;;4.97;3.30;;;15.40;99.90;;;;;;5076420;28;20511;-57
2023/04/19 10:13:11;;;;;;;3.43;3.10;;;15.20;99.90;;;;;;5076868;28;20464;-56
2023/04/19 10:15:42;;;;;;;6.23;3.70;;;15.40;99.90;;;;;;5076876;28;20465;-59
2023/04/19 10:18:10;;;;;;;3.90;3.60;;;15.90;99.90;;;;;;5076368;28;20586;-56
2023/04/19 10:20:48;;;;;;;3.83;3.53;;;16.40;99.90;;;;;;5076706;28;20893;-60
2023/04/19 10:23:15;;;;;;;4.00;3.30;;;16.60;99.90;;;;;;5080354;28;20596;-58
2023/04/19 10:25:46;;;;;;;3.73;3.43;;;16.30;99.90;;;;;;5080934;28;20896;-58
2023/04/19 10:28:15;;;;;;;3.60;3.33;;;15.90;99.90;;;;;;5080106;28;20859;-58
2023/04/19 10:30:54;;;;;;;4.47;3.67;;;16.30;99.90;;;;;;5086329;28;20500;-60
2023/04/19 10:33:27;;;;;;;3.97;3.57;;;16.00;99.90;;;;;;5100363;28;20468;-62
2023/04/19 10:35:57;;;;;;;4.43;4.00;;;15.90;99.90;;;;;;5099014;28;20469;-60
2023/04/19 10:38:40;;;;;;;3.57;3.27;;;15.90;99.90;;;;;;5079024;28;20476;-61
2023/04/19 10:41:13;;;;;;;3.83;3.53;;;16.00;99.90;;;;;;5077393;28;20469;-64
2023/04/19 10:43:41;;;;;;;3.90;3.27;;;16.40;99.90;;;;;;5080130;28;20493;-60
2023/04/19 10:46:13;;;;;;;4.87;3.37;;;15.90;99.90;;;;;;5079287;28;20955;-59
2023/04/19 10:48:52;;;;;;;4.80;3.90;;;16.10;99.90;;;;;;5077633;28;20480;-62
2023/04/19 10:51:21;;;;;;;5.23;3.40;;;16.10;99.90;;;;;;5080273;28;20467;-61
2023/04/19 10:53:59;;;;;;;4.27;3.70;;;16.30;99.90;;;;;;5078156;28;20783;-59
2023/04/19 10:57:11;;;;;;;3.33;3.03;;;16.20;99.90;;;;;;5074137;28;20444;-60
2023/04/19 10:59:41;;;;;;;6.43;3.90;;;16.30;99.90;;;;;;5059919;28;20457;-58
2023/04/19 11:02:27;;;;;;;3.90;3.43;;;16.10;99.90;;;;;;5057789;28;20568;-60
2023/04/19 11:05:04;;;;;;;5.70;3.80;;;16.30;99.90;;;;;;5063493;28;20917;-58
2023/04/19 11:07:41;;;;;;;5.53;4.27;;;16.40;99.90;;;;;;5058263;28;20457;-59
2023/04/19 11:10:10;;;;;;;8.73;4.77;;;16.70;99.90;;;;;;5058181;28;20454;-58
2023/04/19 11:12:43;;;;;;;4.67;4.27;;;17.20;99.90;;;;;;5067206;28;20465;-59
2023/04/19 11:15:10;;;;;;;5.40;4.20;;;17.20;99.90;;;;;;5077670;28;20461;-61
2023/04/19 11:17:38;;;;;;;5.20;4.60;;;16.90;99.90;;;;;;5077971;28;20465;-62
2023/04/19 11:20:08;;;;;;;4.57;4.17;;;16.20;99.90;;;;;;5077264;28;20461;-58
2023/04/19 11:22:37;;;;;;;6.03;4.37;;;16.50;99.90;;;;;;5077644;28;20587;-60
2023/04/19 11:25:09;;;;;;;6.00;4.30;;;16.40;99.90;;;;;;5071940;28;20552;-59
2023/04/19 11:27:38;;;;;;;5.30;3.97;;;16.40;99.90;;;;;;5077144;28;20497;-61
2023/04/19 11:30:07;;;;;;;4.63;4.20;;;16.40;99.90;;;;;;5078165;28;20565;-59
2023/04/19 11:32:34;;;;;;;5.43;4.93;;;16.90;99.90;;;;;;5075421;28;20466;-58
2023/04/19 11:35:07;;;;;;;6.13;3.90;;;17.10;99.90;;;;;;5075848;28;20752;-61
2023/04/19 11:37:34;;;;;;;5.07;4.60;;;17.10;99.90;;;;;;5075923;28;20461;-59
2023/04/19 11:40:03;;;;;;;4.60;4.20;;;17.30;99.90;;;;;;5076179;28;20459;-61
2023/04/19 11:42:31;;;;;;;5.00;4.50;;;17.40;99.90;;;;;;5073401;28;20849;-58
2023/04/19 11:45:00;;;;;;;5.10;4.20;;;17.50;99.90;;;;;;5069862;28;20526;-61
2023/04/19 11:47:27;;;;;;;5.20;4.70;;;17.70;99.90;;;;;;5074717;28;20511;-60
2023/04/19 11:49:56;;;;;;;4.93;3.57;;;17.40;99.90;;;;;;5068451;28;20876;-60
2023/04/19 11:52:24;;;;;;;5.30;4.80;;;17.30;99.90;;;;;;5058673;28;20754;-61
2023/04/19 11:54:52;;;;;;;5.07;4.57;;;17.40;99.90;;;;;;5056475;28;20465;-54
2023/04/19 11:57:30;;;;;;;6.27;4.50;;;17.50;99.90;;;;;;5057115;28;20462;-58
2023/04/19 12:00:10;;;;;;;5.10;4.70;;;18.10;99.90;;;;;;5056938;28;20830;-60
2023/04/19 12:02:39;;;;;;;4.97;4.50;;;17.70;99.90;;;;;;5060048;28;20485;-62
2023/04/19 12:05:15;;;;;;;5.50;4.27;;;17.90;99.90;;;;;;5075066;28;20775;-62
2023/04/19 12:08:01;;;;;;;5.80;5.30;;;17.60;99.90;;;;;;5075287;28;20496;-60
2023/04/19 12:10:29;;;;;;;4.67;4.07;;;17.20;99.90;;;;;;5075909;28;20487;-58
2023/04/19 12:12:56;;;;;;;5.37;4.37;;;18.00;99.90;;;;;;5075667;28;20468;-59
2023/04/19 12:15:41;;;;;;;6.97;4.80;;;18.50;99.90;;;;;;5075828;28;20513;-61
2023/04/19 12:18:09;;;;;;;4.10;3.60;;;18.80;99.90;;;;;;5073192;28;20527;-60
2023/04/19 12:20:38;;;;;;;5.33;4.83;;;18.50;99.90;;;;;;5076979;28;20838;-60
2023/04/19 12:23:09;;;;;;;4.73;4.30;;;17.40;99.90;;;;;;5056681;28;20545;-59
2023/04/19 12:25:37;;;;;;;6.00;4.00;;;18.40;99.90;;;;;;5056269;28;20472;-61
2023/04/19 12:28:05;;;;;;;5.27;4.60;;;18.40;99.90;;;;;;5063180;28;20497;-59
2023/04/19 12:30:34;;;;;;;4.87;4.40;;;18.50;99.90;;;;;;5077670;28;20866;-60
2023/04/19 12:33:01;;;;;;;4.87;4.37;;;18.80;99.90;;;;;;5077121;28;20501;-55
2023/04/19 12:35:29;;;;;;;4.57;4.17;;;18.90;99.90;;;;;;5077586;28;20497;-57
2023/04/19 12:37:58;;;;;;;10.33;4.73;;;19.00;99.90;;;;;;5077876;28;20753;-58
2023/04/19 12:40:26;;;;;;;5.13;4.73;;;19.00;99.90;;;;;;5072513;28;20473;-57
2023/04/19 12:42:54;;;;;;;4.90;4.47;;;18.20;99.90;;;;;;5075729;28;20937;-59
2023/04/19 12:45:22;;;;;;;5.10;4.60;;;18.40;99.90;;;;;;5075901;28;20822;-61
2023/04/19 12:47:50;;;;;;;4.97;4.47;;;18.30;99.90;;;;;;5071057;28;20477;-60
2023/04/19 12:50:17;;;;;;;5.80;5.03;;;18.30;99.90;;;;;;5073953;28;20477;-61
2023/04/19 12:52:45;;;;;;;5.80;5.30;;;18.80;99.90;;;;;;5074390;28;20477;-60
2023/04/19 12:55:13;;;;;;;6.63;4.70;;;18.30;99.90;;;;;;5075376;28;20473;-60
2023/04/19 12:57:40;;;;;;;6.07;5.47;;;17.90;99.90;;;;;;5073488;28;20500;-60